createdAt,value
2023-05-11T00:00:02.640Z,721.00
2023-05-11T00:01:02.698Z,721.00
2023-05-11T00:02:02.784Z,721.00
2023-05-11T00:03:02.894Z,721.00
2023-05-11T00:04:02.946Z,721.00
2023-05-11T00:05:02.882Z,720.00
2023-05-11T00:06:02.943Z,720.00
2023-05-11T00:07:02.964Z,719.00
2023-05-11T00:08:02.999Z,719.00
2023-05-11T00:09:03.056Z,721.00
2023-05-11T00:10:03.078Z,720.00
2023-05-11T00:11:03.082Z,719.00
2023-05-11T00:12:03.102Z,719.00
2023-05-11T00:13:03.121Z,720.00
2023-05-11T00:14:03.138Z,722.00
2023-05-11T00:15:03.196Z,722.00
2023-05-11T00:16:03.267Z,723.00
2023-05-11T00:17:03.236Z,722.00
2023-05-11T00:18:03.244Z,722.00
2023-05-11T00:19:03.376Z,720.00
2023-05-11T00:20:03.277Z,724.00
2023-05-11T00:21:03.309Z,723.00
2023-05-11T00:22:03.304Z,724.00
2023-05-11T00:23:03.326Z,725.00
2023-05-11T00:24:03.353Z,724.00
2023-05-11T00:25:03.412Z,725.00
2023-05-11T00:26:03.496Z,725.00
2023-05-11T00:27:03.524Z,721.00
2023-05-11T00:28:03.592Z,718.00
2023-05-11T00:29:03.668Z,718.00
2023-05-11T00:30:03.735Z,719.00
2023-05-11T00:31:03.816Z,719.00
2023-05-11T00:32:03.800Z,717.00
2023-05-11T00:33:03.868Z,717.00
2023-05-11T00:34:03.858Z,716.00
2023-05-11T00:35:03.923Z,714.00
2023-05-11T00:36:03.945Z,711.00
2023-05-11T00:37:03.970Z,711.00
2023-05-11T00:38:04.014Z,710.00
2023-05-11T00:39:04.053Z,709.00
2023-05-11T00:40:04.084Z,709.00
2023-05-11T00:41:04.075Z,711.00
2023-05-11T00:42:04.157Z,711.00
2023-05-11T00:43:04.152Z,710.00
2023-05-11T00:44:04.144Z,707.00
2023-05-11T00:45:04.161Z,705.00
2023-05-11T00:46:04.186Z,706.00
2023-05-11T00:47:04.325Z,708.00
2023-05-11T00:48:04.224Z,706.00
2023-05-11T00:49:04.228Z,705.00
2023-05-11T00:50:04.247Z,703.00
2023-05-11T00:51:04.259Z,701.00
2023-05-11T00:52:04.290Z,701.00
2023-05-11T00:53:04.336Z,701.00
2023-05-11T00:54:04.329Z,701.00
2023-05-11T00:55:04.369Z,700.00
2023-05-11T00:56:04.374Z,701.00
2023-05-11T00:57:04.382Z,701.00
2023-05-11T00:58:04.427Z,698.00
2023-05-11T00:59:04.449Z,696.00
2023-05-11T01:00:04.505Z,696.00
2023-05-11T01:01:04.620Z,693.00
2023-05-11T01:02:04.659Z,693.00
2023-05-11T01:03:04.700Z,693.00
2023-05-11T01:04:04.656Z,695.00
2023-05-11T01:05:04.716Z,695.00
2023-05-11T01:06:04.735Z,697.00
2023-05-11T01:07:04.786Z,696.00
2023-05-11T01:08:04.818Z,695.00
2023-05-11T01:09:04.833Z,691.00
2023-05-11T01:10:04.861Z,691.00
2023-05-11T01:11:04.901Z,690.00
2023-05-11T01:12:04.922Z,692.00
2023-05-11T01:13:04.984Z,694.00
2023-05-11T01:14:05.014Z,691.00
2023-05-11T01:15:05.020Z,689.00
2023-05-11T01:16:05.182Z,691.00
2023-05-11T01:17:05.163Z,692.00
2023-05-11T01:18:05.149Z,696.00
2023-05-11T01:19:05.339Z,696.00
2023-05-11T01:20:05.228Z,697.00
2023-05-11T01:21:05.266Z,696.00
2023-05-11T01:22:05.301Z,696.00
2023-05-11T01:23:05.347Z,690.00
2023-05-11T01:24:05.404Z,689.00
2023-05-11T01:25:05.615Z,687.00
2023-05-11T01:26:05.503Z,687.00
2023-05-11T01:27:05.561Z,688.00
2023-05-11T01:28:05.591Z,687.00
2023-05-11T01:29:05.612Z,688.00
2023-05-11T01:30:05.664Z,688.00
2023-05-11T01:31:05.702Z,688.00
2023-05-11T01:32:05.841Z,688.00
2023-05-11T01:33:05.843Z,689.00
2023-05-11T01:34:05.826Z,688.00
2023-05-11T01:35:05.881Z,684.00
2023-05-11T01:36:05.905Z,683.00
2023-05-11T01:37:05.939Z,684.00
2023-05-11T01:38:05.957Z,685.00
2023-05-11T01:39:05.996Z,684.00
2023-05-11T01:40:05.985Z,681.00
2023-05-11T01:41:06.013Z,681.00
2023-05-11T01:42:06.076Z,681.00
2023-05-11T01:43:06.090Z,680.00
2023-05-11T01:44:06.130Z,679.00
2023-05-11T01:45:06.165Z,681.00
2023-05-11T01:46:06.244Z,679.00
2023-05-11T01:47:06.264Z,680.00
2023-05-11T01:48:07.035Z,681.00
2023-05-11T01:49:06.366Z,680.00
2023-05-11T01:50:06.423Z,683.00
2023-05-11T01:51:06.461Z,682.00
2023-05-11T01:52:06.514Z,678.00
2023-05-11T01:53:06.557Z,677.00
2023-05-11T01:54:06.590Z,676.00
2023-05-11T01:55:06.658Z,677.00
2023-05-11T01:56:06.729Z,678.00
2023-05-11T01:57:06.802Z,680.00
2023-05-11T01:58:06.851Z,680.00
2023-05-11T01:59:06.872Z,682.00
2023-05-11T02:00:06.924Z,679.00
2023-05-11T02:01:06.991Z,679.00
2023-05-11T02:02:07.033Z,677.00
2023-05-11T02:03:07.175Z,675.00
2023-05-11T02:04:07.104Z,673.00
2023-05-11T02:05:07.138Z,673.00
2023-05-11T02:06:07.173Z,676.00
2023-05-11T02:07:07.229Z,677.00
2023-05-11T02:08:07.298Z,673.00
2023-05-11T02:09:07.339Z,673.00
2023-05-11T02:10:07.392Z,674.00
2023-05-11T02:11:07.492Z,672.00
2023-05-11T02:12:07.525Z,672.00
2023-05-11T02:13:07.563Z,670.00
2023-05-11T02:14:07.664Z,669.00
2023-05-11T02:15:07.665Z,668.00
2023-05-11T02:16:07.699Z,669.00
2023-05-11T02:17:07.708Z,668.00
2023-05-11T02:18:07.852Z,669.00
2023-05-11T02:19:08.020Z,670.00
2023-05-11T02:20:07.823Z,668.00
2023-05-11T02:21:07.852Z,665.00
2023-05-11T02:22:07.882Z,664.00
2023-05-11T02:23:07.898Z,663.00
2023-05-11T02:24:07.917Z,662.00
2023-05-11T02:25:07.921Z,663.00
2023-05-11T02:26:07.925Z,663.00
2023-05-11T02:27:07.936Z,663.00
2023-05-11T02:28:07.997Z,662.00
2023-05-11T02:29:07.973Z,665.00
2023-05-11T02:30:08.005Z,667.00
2023-05-11T02:31:08.060Z,664.00
2023-05-11T02:32:08.122Z,665.00
2023-05-11T02:33:08.152Z,662.00
2023-05-11T02:34:08.137Z,662.00
2023-05-11T02:35:08.141Z,664.00
2023-05-11T02:36:08.179Z,664.00
2023-05-11T02:37:08.172Z,662.00
2023-05-11T02:38:08.188Z,661.00
2023-05-11T02:39:08.190Z,663.00
2023-05-11T02:40:08.222Z,660.00
2023-05-11T02:41:08.247Z,659.00
2023-05-11T02:42:08.249Z,661.00
2023-05-11T02:43:08.247Z,660.00
2023-05-11T02:44:08.270Z,657.00
2023-05-11T02:45:08.278Z,657.00
2023-05-11T02:46:08.293Z,658.00
2023-05-11T02:47:08.373Z,656.00
2023-05-11T02:48:08.342Z,656.00
2023-05-11T02:49:08.339Z,654.00
2023-05-11T02:50:08.386Z,653.00
2023-05-11T02:51:08.366Z,653.00
2023-05-11T02:52:08.400Z,652.00
2023-05-11T02:53:08.427Z,651.00
2023-05-11T02:54:08.465Z,650.00
2023-05-11T02:55:08.487Z,650.00
2023-05-11T02:56:08.504Z,651.00
2023-05-11T02:57:08.551Z,650.00
2023-05-11T02:58:08.584Z,649.00
2023-05-11T02:59:08.607Z,652.00
2023-05-11T03:00:08.667Z,652.00
2023-05-11T03:01:08.740Z,650.00
2023-05-11T03:02:08.775Z,648.00
2023-05-11T03:03:08.727Z,647.00
2023-05-11T03:04:08.673Z,645.00
2023-05-11T03:05:08.686Z,647.00
2023-05-11T03:06:08.712Z,646.00
2023-05-11T03:07:08.682Z,644.00
2023-05-11T03:08:08.703Z,646.00
2023-05-11T03:09:10.307Z,647.00
2023-05-11T03:10:08.709Z,644.00
2023-05-11T03:11:08.713Z,643.00
2023-05-11T03:12:08.722Z,644.00
2023-05-11T03:13:08.729Z,644.00
2023-05-11T03:14:08.729Z,644.00
2023-05-11T03:15:08.745Z,645.00
2023-05-11T03:16:08.789Z,646.00
2023-05-11T03:17:08.759Z,650.00
2023-05-11T03:18:08.776Z,648.00
2023-05-11T03:19:08.758Z,645.00
2023-05-11T03:20:08.758Z,647.00
2023-05-11T03:21:08.751Z,645.00
2023-05-11T03:22:08.768Z,646.00
2023-05-11T03:23:08.753Z,646.00
2023-05-11T03:24:08.755Z,648.00
2023-05-11T03:25:08.765Z,647.00
2023-05-11T03:26:08.748Z,645.00
2023-05-11T03:27:08.750Z,644.00
2023-05-11T03:28:08.774Z,644.00
2023-05-11T03:29:08.769Z,646.00
2023-05-11T03:30:08.776Z,648.00
2023-05-11T03:31:08.792Z,646.00
2023-05-11T03:32:08.824Z,645.00
2023-05-11T03:33:08.857Z,645.00
2023-05-11T03:34:08.837Z,643.00
2023-05-11T03:35:08.812Z,642.00
2023-05-11T03:36:08.824Z,644.00
2023-05-11T03:37:08.827Z,646.00
2023-05-11T03:38:08.854Z,645.00
2023-05-11T03:39:08.840Z,647.00
2023-05-11T03:40:08.843Z,647.00
2023-05-11T03:41:08.847Z,646.00
2023-05-11T03:42:08.884Z,647.00
2023-05-11T03:43:08.863Z,647.00
2023-05-11T03:44:08.876Z,644.00
2023-05-11T03:45:08.871Z,643.00
2023-05-11T03:46:08.915Z,643.00
2023-05-11T03:47:08.880Z,645.00
2023-05-11T03:48:08.880Z,646.00
2023-05-11T03:49:10.246Z,645.00
2023-05-11T03:50:08.905Z,646.00
2023-05-11T03:51:08.895Z,647.00
2023-05-11T03:52:08.886Z,648.00
2023-05-11T03:53:08.894Z,647.00
2023-05-11T03:54:08.917Z,645.00
2023-05-11T03:55:08.911Z,641.00
2023-05-11T03:56:08.892Z,637.00
2023-05-11T03:57:08.900Z,634.00
2023-05-11T03:58:08.899Z,631.00
2023-05-11T03:59:08.910Z,629.00
2023-05-11T04:00:08.912Z,629.00
2023-05-11T04:01:08.913Z,628.00
2023-05-11T04:02:08.947Z,628.00
2023-05-11T04:03:09.022Z,629.00
2023-05-11T04:04:08.961Z,631.00
2023-05-11T04:05:08.927Z,631.00
2023-05-11T04:06:08.927Z,630.00
2023-05-11T04:07:08.927Z,630.00
2023-05-11T04:08:08.929Z,628.00
2023-05-11T04:09:08.950Z,630.00
2023-05-11T04:10:08.968Z,632.00
2023-05-11T04:11:08.948Z,632.00
2023-05-11T04:12:08.949Z,632.00
2023-05-11T04:13:08.954Z,631.00
2023-05-11T04:14:08.964Z,631.00
2023-05-11T04:15:08.954Z,630.00
2023-05-11T04:16:08.992Z,629.00
2023-05-11T04:17:08.973Z,632.00
2023-05-11T04:18:08.993Z,631.00
2023-05-11T04:19:09.006Z,630.00
2023-05-11T04:20:08.992Z,629.00
2023-05-11T04:21:08.991Z,627.00
2023-05-11T04:22:09.015Z,629.00
2023-05-11T04:23:10.415Z,631.00
2023-05-11T04:24:09.076Z,632.00
2023-05-11T04:25:09.100Z,634.00
2023-05-11T04:26:09.120Z,635.00
2023-05-11T04:27:09.118Z,637.00
2023-05-11T04:28:09.138Z,636.00
2023-05-11T04:29:09.146Z,638.00
2023-05-11T04:30:09.192Z,640.00
2023-05-11T04:31:09.202Z,638.00
2023-05-11T04:32:09.176Z,635.00
2023-05-11T04:33:09.277Z,633.00
2023-05-11T04:34:09.195Z,631.00
2023-05-11T04:35:09.211Z,631.00
2023-05-11T04:36:09.218Z,631.00
2023-05-11T04:37:09.221Z,631.00
2023-05-11T04:38:09.239Z,632.00
2023-05-11T04:39:09.972Z,632.00
2023-05-11T04:40:09.275Z,634.00
2023-05-11T04:41:09.282Z,637.00
2023-05-11T04:42:09.317Z,635.00
2023-05-11T04:43:09.307Z,632.00
2023-05-11T04:44:09.318Z,631.00
2023-05-11T04:45:09.322Z,631.00
2023-05-11T04:46:09.331Z,631.00
2023-05-11T04:47:09.393Z,630.00
2023-05-11T04:48:09.370Z,629.00
2023-05-11T04:49:09.363Z,631.00
2023-05-11T04:50:09.373Z,632.00
2023-05-11T04:51:09.379Z,636.00
2023-05-11T04:52:09.424Z,634.00
2023-05-11T04:53:09.400Z,631.00
2023-05-11T04:54:09.418Z,629.00
2023-05-11T04:55:09.441Z,628.00
2023-05-11T04:56:09.439Z,627.00
2023-05-11T04:57:09.445Z,627.00
2023-05-11T04:58:09.483Z,627.00
2023-05-11T04:59:09.467Z,626.00
2023-05-11T05:00:09.526Z,626.00
2023-05-11T05:01:09.521Z,624.00
2023-05-11T05:02:09.504Z,623.00
2023-05-11T05:03:09.557Z,623.00
2023-05-11T05:04:09.560Z,625.00
2023-05-11T05:05:09.552Z,624.00
2023-05-11T05:06:09.572Z,622.00
2023-05-11T05:07:09.571Z,620.00
2023-05-11T05:08:09.586Z,620.00
2023-05-11T05:09:09.604Z,619.00
2023-05-11T05:10:09.625Z,620.00
2023-05-11T05:11:09.648Z,622.00
2023-05-11T05:12:09.653Z,622.00
2023-05-11T05:13:09.684Z,621.00
2023-05-11T05:14:09.717Z,620.00
2023-05-11T05:15:09.754Z,622.00
2023-05-11T05:16:10.606Z,619.00
2023-05-11T05:17:09.787Z,616.00
2023-05-11T05:18:09.855Z,616.00
2023-05-11T05:19:09.881Z,616.00
2023-05-11T05:20:09.986Z,615.00
2023-05-11T05:21:09.789Z,614.00
2023-05-11T05:22:09.810Z,614.00
2023-05-11T05:23:09.850Z,616.00
2023-05-11T05:24:09.839Z,620.00
2023-05-11T05:25:10.007Z,627.00
2023-05-11T05:26:09.873Z,635.00
2023-05-11T05:27:09.986Z,639.00
2023-05-11T05:28:09.892Z,638.00
2023-05-11T05:29:09.907Z,639.00
2023-05-11T05:30:09.945Z,639.00
2023-05-11T05:31:10.027Z,643.00
2023-05-11T05:32:09.939Z,645.00
2023-05-11T05:33:09.975Z,645.00
2023-05-11T05:34:17.416Z,649.00
2023-05-11T05:35:13.208Z,650.00
2023-05-11T05:36:09.960Z,653.00
2023-05-11T05:37:09.982Z,656.00
2023-05-11T05:38:10.034Z,657.00
2023-05-11T05:39:10.005Z,660.00
2023-05-11T05:40:10.214Z,660.00
2023-05-11T05:41:11.008Z,659.00
2023-05-11T05:42:10.005Z,660.00
2023-05-11T05:43:10.010Z,661.00
2023-05-11T05:44:10.629Z,659.00
2023-05-11T05:45:12.437Z,658.00
2023-05-11T05:46:10.092Z,660.00
2023-05-11T05:47:10.053Z,663.00
2023-05-11T05:48:10.564Z,664.00
2023-05-11T05:49:10.048Z,664.00
2023-05-11T05:50:10.636Z,664.00
2023-05-11T05:51:25.686Z,666.00
2023-05-11T05:52:25.919Z,669.00
2023-05-11T05:53:13.429Z,673.00
2023-05-11T05:54:10.251Z,677.00
2023-05-11T05:55:10.125Z,680.00
2023-05-11T05:56:10.696Z,681.00
2023-05-11T05:57:10.374Z,683.00
2023-05-11T05:58:17.788Z,685.00
2023-05-11T05:59:10.159Z,686.00
2023-05-11T06:00:12.044Z,689.00
2023-05-11T06:01:17.963Z,694.00
2023-05-11T06:02:13.413Z,696.00
2023-05-11T06:04:13.430Z,699.00
2023-05-11T06:05:41.928Z,714.00
2023-05-11T06:07:10.104Z,733.00
2023-05-11T06:08:25.735Z,740.00
2023-05-11T06:09:10.410Z,748.00
2023-05-11T06:10:10.717Z,753.00
2023-05-11T06:11:26.102Z,759.00
2023-05-11T06:12:10.185Z,765.00
2023-05-11T06:13:10.127Z,766.00
2023-05-11T06:14:25.715Z,772.00
2023-05-11T06:15:17.515Z,783.00
2023-05-11T06:16:10.558Z,796.00
2023-05-11T06:17:10.185Z,810.00
2023-05-11T06:18:10.273Z,815.00
2023-05-11T06:19:10.302Z,816.00
2023-05-11T06:20:10.119Z,833.00
2023-05-11T11:49:46.543Z,1794.00
2023-05-11T11:50:47.521Z,1793.00
2023-05-11T11:51:47.525Z,1733.00
2023-05-11T11:52:47.532Z,1740.00
2023-05-11T11:53:47.567Z,1772.00
2023-05-11T11:54:47.556Z,1786.00
2023-05-11T11:55:47.530Z,1791.00
2023-05-11T11:56:47.543Z,1798.00
2023-05-11T11:57:48.012Z,1801.00
2023-05-11T11:58:47.537Z,1806.00
2023-05-11T11:59:47.541Z,1843.00
2023-05-11T12:00:47.549Z,1857.00
2023-05-11T12:01:47.595Z,1872.00
2023-05-11T12:02:48.083Z,1880.00
2023-05-11T12:03:47.653Z,1887.00
2023-05-11T12:04:47.685Z,1773.00
2023-05-11T12:05:47.559Z,1526.00
2023-05-11T12:06:47.533Z,1418.00
2023-05-11T12:07:48.024Z,1271.00
2023-05-11T12:08:47.537Z,1153.00
2023-05-11T12:09:47.609Z,1140.00
2023-05-11T12:10:47.561Z,1059.00
2023-05-11T12:11:47.570Z,1225.00
2023-05-11T12:12:48.025Z,1190.00
2023-05-11T12:13:47.588Z,1271.00
2023-05-11T12:14:47.980Z,1280.00
2023-05-11T12:15:47.595Z,1269.00
2023-05-11T12:16:48.013Z,1388.00
2023-05-11T12:17:48.138Z,1432.00
2023-05-11T12:18:47.615Z,1485.00
2023-05-11T12:19:47.657Z,1547.00
2023-05-11T12:20:47.605Z,1553.00
2023-05-11T12:21:47.640Z,1582.00
2023-05-11T12:22:47.641Z,1638.00
2023-05-11T12:23:47.691Z,1663.00
2023-05-11T12:24:47.675Z,1684.00
2023-05-11T12:25:48.029Z,1696.00
2023-05-11T12:26:47.974Z,1717.00
2023-05-11T12:27:47.743Z,1753.00
2023-05-11T12:28:47.726Z,1769.00
2023-05-11T12:29:47.727Z,1794.00
2023-05-11T12:30:47.736Z,1815.00
2023-05-11T12:31:47.787Z,1845.00
2023-05-11T12:32:48.254Z,1856.00
2023-05-11T12:33:47.761Z,1876.00
2023-05-11T12:34:47.753Z,1888.00
2023-05-11T12:35:47.764Z,1939.00
2023-05-11T12:36:47.785Z,1943.00
2023-05-11T12:37:48.234Z,1956.00
2023-05-11T12:38:48.040Z,1973.00
2023-05-11T12:39:48.061Z,2007.00
2023-05-11T12:40:48.071Z,2018.00
2023-05-11T12:41:48.039Z,2022.00
2023-05-11T12:42:48.042Z,2033.00
2023-05-11T12:43:48.059Z,2047.00
2023-05-11T12:44:47.985Z,2060.00
2023-05-11T12:45:48.283Z,2071.00
2023-05-11T12:46:48.165Z,2085.00
2023-05-11T12:47:48.021Z,2103.00
2023-05-11T12:48:47.917Z,2121.00
2023-05-11T12:49:48.006Z,2133.00
2023-05-11T12:50:48.043Z,2145.00
2023-05-11T12:51:48.256Z,2163.00
2023-05-11T12:52:48.071Z,2174.00
2023-05-11T12:53:48.029Z,2191.00
2023-05-11T12:54:48.043Z,2199.00
2023-05-11T12:55:48.053Z,2216.00
2023-05-11T12:56:48.226Z,2237.00
2023-05-11T12:57:48.109Z,2245.00
2023-05-11T12:58:48.154Z,2255.00
2023-05-11T12:59:48.211Z,2265.00
2023-05-11T13:00:48.259Z,2281.00
2023-05-11T13:01:49.377Z,2294.00
2023-05-11T13:02:48.767Z,2304.00
2023-05-11T13:03:48.855Z,2330.00
2023-05-11T13:04:48.541Z,2355.00
2023-05-11T13:05:48.567Z,2365.00
2023-05-11T13:06:48.627Z,2415.00
2023-05-11T13:07:48.746Z,2445.00
2023-05-11T13:08:48.732Z,2446.00
2023-05-11T13:09:49.079Z,2445.00
2023-05-11T13:10:49.052Z,2448.00
2023-05-11T13:11:49.047Z,2462.00
2023-05-11T13:12:49.227Z,2471.00
2023-05-11T13:13:49.044Z,2476.00
2023-05-11T13:14:49.067Z,2484.00
2023-05-11T13:15:49.107Z,2496.00
2023-05-11T13:16:49.106Z,2508.00
2023-05-11T13:17:49.169Z,2505.00
2023-05-11T13:18:49.220Z,2518.00
2023-05-11T13:19:49.220Z,2528.00
2023-05-11T13:20:49.257Z,2531.00
2023-05-11T13:21:49.291Z,2542.00
2023-05-11T13:22:50.147Z,2545.00
2023-05-11T13:23:49.367Z,2519.00
2023-05-11T13:24:49.406Z,2518.00
2023-05-11T13:25:50.037Z,2514.00
2023-05-11T13:26:49.490Z,2515.00
2023-05-11T13:27:49.521Z,2570.00
2023-05-11T13:29:01.875Z,2577.00
2023-05-11T13:29:49.544Z,2581.00
2023-05-11T13:30:49.548Z,2586.00
2023-05-11T13:31:49.648Z,2600.00
2023-05-11T13:32:49.587Z,2617.00
2023-05-11T13:33:49.509Z,2624.00
2023-05-11T13:34:49.488Z,2645.00
2023-05-11T13:35:49.485Z,2644.00
2023-05-11T13:36:49.525Z,2640.00
2023-05-11T13:37:49.460Z,2649.00
2023-05-11T13:38:49.442Z,2689.00
2023-05-11T13:39:49.456Z,2687.00
2023-05-11T13:40:49.428Z,2696.00
2023-05-11T13:41:49.426Z,2704.00
2023-05-11T13:42:49.719Z,2722.00
2023-05-11T13:43:49.390Z,2718.00
2023-05-11T13:44:49.392Z,2743.00
2023-05-11T13:45:49.392Z,2747.00
2023-05-11T13:46:49.433Z,2765.00
2023-05-11T13:47:50.040Z,2775.00
2023-05-11T13:48:49.378Z,2790.00
2023-05-11T13:49:49.341Z,2804.00
2023-05-11T13:50:49.338Z,2820.00
2023-05-11T13:51:49.326Z,2835.00
2023-05-11T13:52:49.735Z,2732.00
2023-05-11T13:53:49.287Z,2717.00
2023-05-11T13:54:49.274Z,2750.00
2023-05-11T13:55:49.295Z,2800.00
2023-05-11T13:56:49.266Z,2820.00
2023-05-11T13:57:49.374Z,2817.00
2023-05-11T13:58:49.223Z,2774.00
2023-05-11T13:59:49.205Z,2796.00
2023-05-11T14:01:06.669Z,2806.00
2023-05-11T14:01:49.337Z,2798.00
2023-05-11T14:02:49.273Z,2797.00
2023-05-11T14:03:49.217Z,2834.00
2023-05-11T14:04:49.145Z,2860.00
2023-05-11T14:05:49.126Z,2851.00
2023-05-11T14:06:49.117Z,2842.00
2023-05-11T14:07:49.489Z,2844.00
2023-05-11T14:08:49.066Z,2849.00
2023-05-11T14:09:49.070Z,2868.00
2023-05-11T14:10:49.058Z,2909.00
2023-05-11T14:11:49.037Z,2922.00
2023-05-11T14:12:49.268Z,2937.00
2023-05-11T14:13:49.071Z,2934.00
2023-05-11T14:14:49.007Z,2943.00
2023-05-11T14:15:49.004Z,2977.00
2023-05-11T14:16:48.988Z,2966.00
2023-05-11T14:17:49.081Z,2974.00
2023-05-11T14:18:49.064Z,2968.00
2023-05-11T14:19:48.963Z,2960.00
2023-05-11T14:20:48.951Z,2956.00
2023-05-11T14:21:48.939Z,2968.00
2023-05-11T14:22:49.111Z,2977.00
2023-05-11T14:24:06.669Z,2911.00
2023-05-11T14:24:49.114Z,2947.00
2023-05-11T14:25:49.049Z,2967.00
2023-05-11T14:26:48.888Z,2970.00
2023-05-11T14:27:49.255Z,2974.00
2023-05-11T14:28:48.879Z,2991.00
2023-05-11T14:29:48.877Z,2997.00
2023-05-11T14:30:48.930Z,2997.00
2023-05-11T14:31:48.822Z,3028.00
2023-05-11T14:32:48.826Z,3074.00
2023-05-11T14:33:49.126Z,3069.00
2023-05-11T14:34:49.113Z,3038.00
2023-05-11T14:35:49.112Z,3026.00
2023-05-11T14:36:49.112Z,2853.00
2023-05-11T14:37:49.129Z,2718.00
2023-05-11T14:38:49.112Z,2484.00
2023-05-11T14:39:48.993Z,2566.00
2023-05-11T14:40:51.072Z,2882.00
2023-05-11T14:41:49.068Z,2591.00
2023-05-11T14:42:48.710Z,2553.00
2023-05-11T14:43:48.658Z,2731.00
2023-05-11T14:44:48.653Z,2766.00
2023-05-11T14:45:48.685Z,2823.00
2023-05-11T14:46:48.697Z,2750.00
2023-05-11T14:47:48.660Z,2709.00
2023-05-11T14:48:48.616Z,2729.00
2023-05-11T14:49:48.604Z,2709.00
2023-05-11T14:50:48.587Z,2701.00
2023-05-11T14:51:48.590Z,2578.00
2023-05-11T14:52:48.569Z,2662.00
2023-05-11T14:53:48.546Z,2639.00
2023-05-11T14:54:48.532Z,2640.00
2023-05-11T14:55:48.538Z,2730.00
2023-05-11T14:56:48.517Z,2689.00
2023-05-11T14:57:48.541Z,2664.00
2023-05-11T14:58:48.499Z,2656.00
2023-05-11T14:59:59.109Z,2684.00
2023-05-11T15:00:48.495Z,2678.00
2023-05-11T15:01:48.528Z,2617.00
2023-05-11T15:02:48.497Z,2706.00
2023-05-11T15:03:48.486Z,2678.00
2023-05-11T15:04:48.453Z,2703.00
2023-05-11T15:05:48.434Z,2714.00
2023-05-11T15:06:48.430Z,2636.00
2023-05-11T15:07:48.431Z,2635.00
2023-05-11T15:08:48.412Z,2621.00
2023-05-11T15:09:48.421Z,2606.00
2023-05-11T15:10:48.418Z,2598.00
2023-05-11T15:11:48.416Z,2601.00
2023-05-11T15:12:48.407Z,2582.00
2023-05-11T15:13:48.417Z,2471.00
2023-05-11T15:14:48.407Z,2494.00
2023-05-11T15:15:48.460Z,2571.00
2023-05-11T15:16:48.400Z,2547.00
2023-05-11T15:17:48.491Z,2502.00
2023-05-11T15:18:49.169Z,2489.00
2023-05-11T15:19:48.394Z,2131.00
2023-05-11T15:20:48.394Z,1757.00
2023-05-11T15:21:48.406Z,1410.00
2023-05-11T15:22:48.418Z,1252.00
2023-05-11T15:23:48.434Z,1202.00
2023-05-11T15:24:48.602Z,1284.00
2023-05-11T15:25:48.472Z,1293.00
2023-05-11T15:26:48.765Z,1284.00
2023-05-11T15:27:48.502Z,1277.00
2023-05-11T15:28:48.527Z,1276.00
2023-05-11T15:29:48.658Z,1236.00
2023-05-11T15:30:48.684Z,1243.00
2023-05-11T15:31:49.151Z,1220.00
2023-05-11T15:32:49.158Z,1245.00
2023-05-11T15:33:49.231Z,1241.00
2023-05-11T15:34:59.342Z,1250.00
2023-05-11T15:35:49.139Z,1322.00
2023-05-11T15:36:49.646Z,1329.00
2023-05-11T15:37:49.150Z,1339.00
2023-05-11T15:38:49.150Z,1417.00
2023-05-11T15:39:49.142Z,1421.00
2023-05-11T15:40:49.150Z,1426.00
2023-05-11T15:41:49.439Z,1434.00
2023-05-11T15:42:49.166Z,1442.00
2023-05-11T15:43:49.165Z,1452.00
2023-05-11T15:44:49.153Z,1492.00
2023-05-11T15:45:49.173Z,1494.00
2023-05-11T15:46:49.163Z,1502.00
2023-05-11T15:47:49.182Z,1500.00
2023-05-11T15:48:49.174Z,1492.00
2023-05-11T15:49:49.169Z,1493.00
2023-05-11T15:50:49.161Z,1486.00
2023-05-11T15:51:49.162Z,1479.00
2023-05-11T15:52:49.151Z,1476.00
2023-05-11T15:53:49.270Z,1472.00
2023-05-11T15:54:49.157Z,1471.00
2023-05-11T15:55:49.151Z,1471.00
2023-05-11T15:56:49.154Z,1463.00
2023-05-11T15:57:49.158Z,1461.00
2023-05-11T15:58:49.189Z,1462.00
2023-05-11T15:59:49.149Z,1460.00
2023-05-11T16:00:49.247Z,1456.00
2023-05-11T16:01:49.246Z,1458.00
2023-05-11T16:02:49.466Z,1457.00
2023-05-11T16:03:49.265Z,1459.00
2023-05-11T16:04:49.206Z,1458.00
2023-05-11T16:05:49.186Z,1457.00
2023-05-11T16:06:49.151Z,1456.00
2023-05-11T16:07:49.161Z,1455.00
2023-05-11T16:08:49.216Z,1450.00
2023-05-11T16:09:49.159Z,1451.00
2023-05-11T16:10:49.212Z,1452.00
2023-05-11T16:11:49.171Z,1452.00
2023-05-11T16:12:49.186Z,1448.00
2023-05-11T16:13:49.188Z,1443.00
2023-05-11T16:14:49.159Z,1442.00
2023-05-11T16:15:49.165Z,1440.00
2023-05-11T16:16:49.187Z,1437.00
2023-05-11T16:17:49.183Z,1435.00
2023-05-11T16:18:49.331Z,1430.00
2023-05-11T16:19:49.164Z,1426.00
2023-05-11T16:20:49.172Z,1420.00
2023-05-11T16:21:49.203Z,1421.00
2023-05-11T16:22:49.171Z,1417.00
2023-05-11T16:23:49.178Z,1416.00
2023-05-11T16:24:49.177Z,1414.00
2023-05-11T16:25:49.192Z,1409.00
2023-05-11T16:26:49.195Z,1407.00
2023-05-11T16:27:49.784Z,1410.00
2023-05-11T16:28:49.249Z,1410.00
2023-05-11T16:29:49.215Z,1408.00
2023-05-11T16:30:49.217Z,1404.00
2023-05-11T16:31:49.295Z,1402.00
2023-05-11T16:32:49.301Z,1401.00
2023-05-11T16:33:49.253Z,1403.00
2023-05-11T16:34:49.246Z,1404.00
2023-05-11T16:35:49.253Z,1400.00
2023-05-11T16:36:49.272Z,1399.00
2023-05-11T16:37:49.305Z,1395.00
2023-05-11T16:38:49.284Z,1391.00
2023-05-11T16:39:49.282Z,1387.00
2023-05-11T16:40:49.284Z,1390.00
2023-05-11T16:41:49.279Z,1388.00
2023-05-11T16:42:49.296Z,1385.00
2023-05-11T16:43:49.283Z,1379.00
2023-05-11T16:44:49.303Z,1378.00
2023-05-11T16:45:49.291Z,1380.00
2023-05-11T16:46:49.358Z,1380.00
2023-05-11T16:47:49.338Z,1375.00
2023-05-11T16:48:49.316Z,1370.00
2023-05-11T16:49:49.335Z,1368.00
2023-05-11T16:50:49.342Z,1366.00
2023-05-11T16:51:49.344Z,1364.00
2023-05-11T16:52:49.356Z,1364.00
2023-05-11T16:53:49.394Z,1363.00
2023-05-11T16:54:49.377Z,1360.00
2023-05-11T16:55:49.387Z,1355.00
2023-05-11T16:56:49.397Z,1352.00
2023-05-11T16:57:49.408Z,1352.00
2023-05-11T16:58:49.430Z,1353.00
2023-05-11T16:59:49.429Z,1352.00
2023-05-11T17:00:49.445Z,1350.00
2023-05-11T17:01:49.559Z,1345.00
2023-05-11T17:02:49.601Z,1339.00
2023-05-11T17:03:49.558Z,1336.00
2023-05-11T17:04:49.497Z,1332.00
2023-05-11T17:05:49.508Z,1331.00
2023-05-11T17:06:49.520Z,1329.00
2023-05-11T17:07:49.531Z,1325.00
2023-05-11T17:08:49.550Z,1324.00
2023-05-11T17:09:49.605Z,1321.00
2023-05-11T17:10:50.313Z,1321.00
2023-05-11T17:11:49.580Z,1321.00
2023-05-11T17:12:49.584Z,1318.00
2023-05-11T17:13:49.604Z,1316.00
2023-05-11T17:14:49.608Z,1312.00
2023-05-11T17:15:49.661Z,1302.00
2023-05-11T17:16:49.676Z,1297.00
2023-05-11T17:17:51.336Z,1295.00
2023-05-11T17:18:49.901Z,1295.00
2023-05-11T17:19:49.908Z,1296.00
2023-05-11T17:20:49.892Z,1297.00
2023-05-11T17:21:49.935Z,1295.00
2023-05-11T17:22:49.921Z,1296.00
2023-05-11T17:23:49.937Z,1297.00
2023-05-11T17:24:50.031Z,1294.00
2023-05-11T17:25:50.006Z,1291.00
2023-05-11T17:26:49.976Z,1294.00
2023-05-11T17:27:49.981Z,1296.00
2023-05-11T17:28:50.001Z,1290.00
2023-05-11T17:29:50.026Z,1283.00
2023-05-11T17:30:50.237Z,1280.00
2023-05-11T17:31:50.302Z,1276.00
2023-05-11T17:32:50.323Z,1278.00
2023-05-11T17:33:50.155Z,1280.00
2023-05-11T17:34:50.078Z,1281.00
2023-05-11T17:35:50.093Z,1279.00
2023-05-11T17:36:50.113Z,1278.00
2023-05-11T17:37:50.118Z,1283.00
2023-05-11T17:38:50.126Z,1280.00
2023-05-11T17:39:50.138Z,1281.00
2023-05-11T17:40:50.156Z,1281.00
2023-05-11T17:41:50.194Z,1279.00
2023-05-11T17:42:50.181Z,1273.00
2023-05-11T17:43:50.226Z,1270.00
2023-05-11T17:44:50.232Z,1269.00
2023-05-11T17:45:50.280Z,1266.00
2023-05-11T17:46:50.282Z,1264.00
2023-05-11T17:47:50.363Z,1261.00